createdAt,value
2023-04-02T00:02:20.546Z,1.20
2023-04-02T00:05:16.390Z,1.27
2023-04-02T00:07:44.618Z,1.03
2023-04-02T00:10:29.494Z,1.70
2023-04-02T00:13:43.440Z,1.30
2023-04-02T00:16:14.044Z,0.90
2023-04-02T00:18:46.315Z,0.90
2023-04-02T00:21:25.781Z,1.13
2023-04-02T00:23:55.272Z,1.23
2023-04-02T00:26:21.812Z,1.03
2023-04-02T00:28:49.370Z,1.23
2023-04-02T00:31:18.574Z,1.00
2023-04-02T00:33:46.236Z,1.40
2023-04-02T00:36:12.832Z,1.00
2023-04-02T00:38:43.628Z,1.17
2023-04-02T00:41:16.292Z,1.63
2023-04-02T00:43:46.673Z,1.10
2023-04-02T00:46:21.965Z,1.30
2023-04-02T00:49:02.731Z,1.30
2023-04-02T00:51:53.169Z,1.70
2023-04-02T00:54:22.968Z,1.33
2023-04-02T00:56:53.742Z,1.30
2023-04-02T00:59:35.652Z,1.30
2023-04-02T01:02:14.716Z,1.40
2023-04-02T01:04:41.679Z,2.00
2023-04-02T01:07:12.214Z,1.43
2023-04-02T01:10:01.013Z,1.67
2023-04-02T01:13:06.313Z,1.50
2023-04-02T01:15:43.353Z,1.60
2023-04-02T01:18:18.824Z,1.27
2023-04-02T01:21:11.615Z,1.50
2023-04-02T01:24:02.419Z,1.60
2023-04-02T01:27:03.861Z,1.50
2023-04-02T01:29:40.467Z,1.40
2023-04-02T01:32:10.953Z,2.00
2023-04-02T01:34:37.950Z,1.70
2023-04-02T01:37:07.251Z,1.77
2023-04-02T01:39:49.201Z,3.27
2023-04-02T01:42:37.593Z,3.10
2023-04-02T01:45:14.245Z,2.60
2023-04-02T01:47:42.657Z,3.30
2023-04-02T01:50:18.151Z,3.23
2023-04-02T01:52:47.124Z,2.83
2023-04-02T01:55:17.840Z,2.50
2023-04-02T01:57:49.282Z,2.73
2023-04-02T02:00:17.443Z,1.93
2023-04-02T02:02:48.644Z,2.73
2023-04-02T02:05:18.005Z,5.17
2023-04-02T02:07:45.374Z,2.80
2023-04-02T02:10:18.278Z,2.10
2023-04-02T02:12:46.224Z,2.60
2023-04-02T02:15:23.237Z,2.20
2023-04-02T02:17:50.703Z,2.00
2023-04-02T02:20:17.957Z,2.20
2023-04-02T02:22:47.762Z,2.33
2023-04-02T02:25:24.114Z,4.80
2023-04-02T02:28:05.683Z,2.10
2023-04-02T02:30:52.815Z,2.17
2023-04-02T02:33:28.465Z,2.10
2023-04-02T02:36:02.935Z,1.90
2023-04-02T02:38:57.749Z,1.80
2023-04-02T02:41:41.580Z,1.80
2023-04-02T02:44:17.049Z,3.53
2023-04-02T02:46:47.956Z,4.37
2023-04-02T02:49:23.792Z,1.93
2023-04-02T02:51:57.998Z,1.60
2023-04-02T02:54:27.160Z,1.50
2023-04-02T02:57:00.235Z,1.70
2023-04-02T02:59:29.629Z,1.90
2023-04-02T03:01:56.805Z,1.40
2023-04-02T03:04:24.504Z,1.23
2023-04-02T03:06:53.501Z,2.00
2023-04-02T03:09:36.764Z,1.13
2023-04-02T03:12:12.148Z,1.50
2023-04-02T03:14:46.459Z,1.33
2023-04-02T03:17:21.061Z,1.57
2023-04-02T03:19:56.166Z,0.93
2023-04-02T03:23:15.005Z,1.50
2023-04-02T03:25:46.420Z,1.10
2023-04-02T03:28:18.519Z,1.70
2023-04-02T03:30:52.396Z,1.00
2023-04-02T03:33:28.717Z,1.07
2023-04-02T03:35:58.090Z,1.10
2023-04-02T03:38:35.698Z,1.27
2023-04-02T03:41:15.345Z,1.30
2023-04-02T03:43:52.739Z,1.40
2023-04-02T03:46:39.361Z,1.20
2023-04-02T03:49:23.934Z,1.13
2023-04-02T03:51:57.481Z,1.00
2023-04-02T03:54:23.878Z,1.10
2023-04-02T03:56:52.689Z,0.90
2023-04-02T03:59:59.412Z,1.00
2023-04-02T04:02:39.705Z,0.87
2023-04-02T04:05:18.365Z,0.90
2023-04-02T04:07:45.110Z,0.90
2023-04-02T04:10:19.738Z,1.00
2023-04-02T04:12:51.847Z,0.70
2023-04-02T04:15:33.293Z,1.27
2023-04-02T04:18:34.907Z,1.93
2023-04-02T04:21:11.914Z,1.30
2023-04-02T04:23:40.985Z,0.83
2023-04-02T04:26:21.009Z,0.80
2023-04-02T04:29:09.544Z,0.90
2023-04-02T04:31:49.543Z,0.77
2023-04-02T04:34:26.340Z,0.80
2023-04-02T04:36:57.361Z,0.73
2023-04-02T04:39:29.928Z,0.70
2023-04-02T04:42:00.846Z,0.83
2023-04-02T04:44:37.856Z,0.70
2023-04-02T04:47:15.421Z,0.90
2023-04-02T04:49:55.199Z,0.70
2023-04-02T04:52:25.761Z,0.70
2023-04-02T04:54:52.529Z,0.83
2023-04-02T04:57:37.141Z,0.70
2023-04-02T05:00:07.103Z,0.90
2023-04-02T05:02:41.895Z,1.00
2023-04-02T05:05:19.062Z,0.70
2023-04-02T05:07:51.142Z,0.97
2023-04-02T05:10:40.920Z,0.90
2023-04-02T05:13:23.813Z,0.80
2023-04-02T05:16:13.291Z,1.00
2023-04-02T05:18:49.069Z,0.80
2023-04-02T05:21:18.137Z,0.80
2023-04-02T05:23:56.838Z,1.60
2023-04-02T05:26:50.421Z,1.00
2023-04-02T05:29:33.362Z,0.97
2023-04-02T05:32:25.739Z,1.00
2023-04-02T05:34:55.753Z,1.10
2023-04-02T05:37:26.272Z,0.90
2023-04-02T05:39:59.606Z,0.93
2023-04-02T05:42:30.721Z,0.80
2023-04-02T05:45:20.704Z,1.00
2023-04-02T05:47:50.586Z,0.90
2023-04-02T05:50:30.211Z,0.70
2023-04-02T05:53:08.857Z,1.10
2023-04-02T05:55:59.697Z,0.83
2023-04-02T05:58:36.686Z,0.90
2023-04-02T06:01:20.995Z,1.20
2023-04-02T06:04:05.585Z,0.87
2023-04-02T06:06:43.932Z,1.20
2023-04-02T06:09:21.588Z,0.90
2023-04-02T06:11:57.013Z,1.27
2023-04-02T06:14:23.619Z,1.37
2023-04-02T06:16:50.371Z,1.00
2023-04-02T06:19:30.877Z,0.70
2023-04-02T06:22:10.580Z,0.70
2023-04-02T06:24:41.038Z,0.90
2023-04-02T06:27:12.535Z,0.80
2023-04-02T06:29:44.309Z,1.10
2023-04-02T06:32:12.405Z,1.00
2023-04-02T06:34:40.715Z,0.80
2023-04-02T06:37:37.488Z,1.00
2023-04-02T06:40:17.910Z,0.93
2023-04-02T06:42:45.989Z,0.97
2023-04-02T06:45:34.231Z,1.10
2023-04-02T06:48:02.911Z,0.80
2023-04-02T06:50:38.780Z,0.90
2023-04-02T06:53:09.515Z,0.80
2023-04-02T06:56:03.173Z,1.17
2023-04-02T06:58:29.491Z,1.20
2023-04-02T07:00:56.586Z,1.40
2023-04-02T07:03:27.472Z,1.27
2023-04-02T07:05:54.410Z,0.97
2023-04-02T07:08:21.261Z,0.93
2023-04-02T07:10:47.790Z,0.73
2023-04-02T07:13:16.476Z,1.20
2023-04-02T07:15:45.374Z,0.80
2023-04-02T07:18:33.150Z,1.13
2023-04-02T07:20:59.941Z,0.70
2023-04-02T07:23:27.081Z,0.93
2023-04-02T07:25:54.756Z,1.13
2023-04-02T07:28:22.867Z,0.70
2023-04-02T07:30:51.450Z,0.80
2023-04-02T07:33:20.927Z,1.10
2023-04-02T07:35:47.598Z,0.90
2023-04-02T07:38:14.003Z,1.00
2023-04-02T07:40:40.401Z,0.80
2023-04-02T07:43:06.906Z,0.80
2023-04-02T07:45:33.475Z,0.80
2023-04-02T07:48:12.744Z,0.83
2023-04-02T07:50:39.170Z,0.80
2023-04-02T07:53:06.956Z,1.00
2023-04-02T07:55:33.560Z,0.67
2023-04-02T07:58:00.193Z,1.23
2023-04-02T08:00:28.906Z,0.80
2023-04-02T08:02:56.057Z,0.90
2023-04-02T08:05:22.603Z,0.70
2023-04-02T08:07:54.440Z,0.73
2023-04-02T08:10:21.006Z,0.80
2023-04-02T08:12:47.363Z,1.10
2023-04-02T08:15:14.712Z,0.90
2023-04-02T08:17:41.709Z,0.80
2023-04-02T08:20:14.300Z,0.90
2023-04-02T08:22:40.825Z,1.00
2023-04-02T08:25:07.828Z,0.90
2023-04-02T08:27:34.181Z,0.80
2023-04-02T08:30:00.625Z,0.70
2023-04-02T08:32:28.879Z,1.07
2023-04-02T08:34:55.320Z,0.90
2023-04-02T08:37:21.670Z,0.80
2023-04-02T08:39:48.031Z,0.83
2023-04-02T08:42:39.407Z,0.97
2023-04-02T08:45:38.115Z,0.83
2023-04-02T08:48:06.357Z,1.00
2023-04-02T08:50:37.384Z,0.80
2023-04-02T08:53:12.168Z,0.70
2023-04-02T08:56:20.954Z,1.00
2023-04-02T08:58:49.232Z,1.93
2023-04-02T09:01:24.733Z,1.00
2023-04-02T09:03:55.807Z,1.00
2023-04-02T09:06:22.953Z,1.23
2023-04-02T09:08:51.789Z,1.03
2023-04-02T09:11:21.702Z,1.00
2023-04-02T09:13:54.358Z,1.00
2023-04-02T09:16:33.850Z,0.83
2023-04-02T09:19:00.916Z,1.00
2023-04-02T09:21:36.907Z,1.30
2023-04-02T09:24:05.293Z,1.10
2023-04-02T09:26:34.082Z,0.90
2023-04-02T09:29:28.435Z,0.93
2023-04-02T09:32:07.882Z,0.93
2023-04-02T09:34:36.480Z,1.00
2023-04-02T09:37:16.096Z,0.83
2023-04-02T09:39:42.885Z,0.90
2023-04-02T09:42:28.975Z,0.90
2023-04-02T09:45:22.037Z,1.00
2023-04-02T09:47:50.274Z,0.93
2023-04-02T09:50:30.772Z,1.00
2023-04-02T09:52:57.504Z,1.10
2023-04-02T09:55:28.920Z,0.80
2023-04-02T09:58:16.859Z,1.20
2023-04-02T10:00:54.030Z,0.77
2023-04-02T10:03:32.951Z,0.80
2023-04-02T10:06:12.899Z,0.70
2023-04-02T10:08:42.192Z,0.80
2023-04-02T10:11:36.420Z,1.23
2023-04-02T10:14:20.415Z,1.80
2023-04-02T10:16:53.657Z,0.70
2023-04-02T10:19:51.499Z,0.80
2023-04-02T10:22:20.824Z,0.80
2023-04-02T10:24:48.226Z,0.73
2023-04-02T10:27:37.496Z,2.07
2023-04-02T10:30:16.731Z,0.97
2023-04-02T10:32:43.010Z,0.73
2023-04-02T10:35:19.992Z,1.00
2023-04-02T10:37:46.917Z,0.87
2023-04-02T10:40:27.414Z,0.53
2023-04-02T10:43:21.728Z,0.70
2023-04-02T10:45:56.449Z,0.77
2023-04-02T10:48:48.679Z,0.73
2023-04-02T10:51:26.918Z,0.93
2023-04-02T10:54:06.723Z,0.90
2023-04-02T10:56:43.996Z,0.90
2023-04-02T10:59:24.515Z,1.00
2023-04-02T11:01:53.423Z,0.70
2023-04-02T11:04:39.056Z,1.03
2023-04-02T11:07:14.851Z,0.83
2023-04-02T11:09:45.301Z,0.70
2023-04-02T11:12:23.705Z,0.70
2023-04-02T11:14:52.232Z,1.10
2023-04-02T11:17:19.806Z,1.00
2023-04-02T11:19:46.688Z,1.00
2023-04-02T11:22:24.297Z,1.20
2023-04-02T11:24:52.917Z,0.80
2023-04-02T11:27:31.727Z,1.10
2023-04-02T11:30:18.206Z,0.80
2023-04-02T11:32:47.269Z,0.80
2023-04-02T11:35:27.424Z,1.00
2023-04-02T11:37:56.684Z,0.90
2023-04-02T11:40:41.578Z,0.90
2023-04-02T11:43:33.094Z,1.00
2023-04-02T11:46:23.422Z,1.80
2023-04-02T11:48:49.833Z,1.00
2023-04-02T11:51:22.533Z,1.03
2023-04-02T11:53:54.462Z,1.00
2023-04-02T11:56:48.004Z,0.97
2023-04-02T11:59:30.377Z,1.07
2023-04-02T12:02:06.539Z,1.00
2023-04-02T12:04:42.108Z,0.80
2023-04-02T12:07:20.557Z,0.90
2023-04-02T12:09:50.716Z,0.80
2023-04-02T12:12:26.235Z,0.80
2023-04-02T12:14:56.344Z,1.10
2023-04-02T12:17:39.098Z,0.80
2023-04-02T12:20:13.545Z,0.80
2023-04-02T12:22:47.526Z,1.13
2023-04-02T12:25:29.740Z,1.17
2023-04-02T12:28:09.790Z,1.00
2023-04-02T12:30:37.753Z,0.70
2023-04-02T12:33:19.345Z,0.80
2023-04-02T12:35:47.834Z,0.60
2023-04-02T12:38:27.381Z,0.60
2023-04-02T12:41:06.261Z,1.10
2023-04-02T12:43:34.952Z,1.90
2023-04-02T12:46:04.634Z,0.60
2023-04-02T12:48:32.309Z,0.70
2023-04-02T12:50:59.873Z,0.90
2023-04-02T12:53:29.051Z,0.73
2023-04-02T12:55:56.083Z,1.30
2023-04-02T12:58:40.584Z,0.87
2023-04-02T13:01:11.348Z,0.80
2023-04-02T13:03:37.904Z,0.90
2023-04-02T13:06:20.582Z,1.10
2023-04-02T13:08:47.188Z,0.70
2023-04-02T13:11:13.596Z,0.70
2023-04-02T13:13:43.405Z,0.80
2023-04-02T13:16:09.713Z,0.60
2023-04-02T13:18:37.990Z,0.80
2023-04-02T13:21:28.975Z,0.90
2023-04-02T13:23:55.556Z,2.30
2023-04-02T13:26:27.056Z,1.40
2023-04-02T13:29:17.575Z,1.10
2023-04-02T13:31:43.974Z,1.63
2023-04-02T13:34:10.482Z,1.80
2023-04-02T13:36:37.343Z,1.77
2023-04-02T13:39:03.864Z,0.80
2023-04-02T13:41:34.751Z,0.70
2023-04-02T13:44:03.296Z,6.67
2023-04-02T13:46:32.412Z,7.13
2023-04-02T13:48:59.297Z,1.60
2023-04-02T13:51:36.991Z,0.80
2023-04-02T13:54:08.807Z,0.60
2023-04-02T13:56:36.031Z,0.70
2023-04-02T13:59:02.474Z,1.00
2023-04-02T14:01:28.849Z,0.80
2023-04-02T14:03:56.653Z,0.50
2023-04-02T14:06:52.221Z,0.80
2023-04-02T14:09:31.732Z,0.70
2023-04-02T14:12:17.685Z,0.60
2023-04-02T14:15:01.885Z,0.60
2023-04-02T14:17:47.553Z,0.67
2023-04-02T14:20:33.136Z,7.37
2023-04-02T14:23:12.745Z,3.97
2023-04-02T14:26:05.357Z,0.90
2023-04-02T14:28:45.778Z,0.70
2023-04-02T14:31:51.219Z,0.50
2023-04-02T14:34:39.805Z,0.60
2023-04-02T14:37:18.326Z,0.50
2023-04-02T14:40:22.404Z,0.60
2023-04-02T14:42:57.770Z,0.80
2023-04-02T14:45:27.142Z,0.57
2023-04-02T14:48:17.474Z,0.60
2023-04-02T14:50:44.062Z,0.73
2023-04-02T14:53:33.822Z,0.50
2023-04-02T14:56:03.438Z,0.63
2023-04-02T14:58:36.771Z,0.60
2023-04-02T15:01:09.544Z,0.60
2023-04-02T15:03:58.145Z,0.80
2023-04-02T15:06:31.163Z,0.97
2023-04-02T15:09:23.325Z,0.80
2023-04-02T15:11:52.712Z,1.20
2023-04-02T15:14:25.261Z,0.90
2023-04-02T15:16:51.630Z,0.70
2023-04-02T15:19:19.473Z,0.90
2023-04-02T15:24:42.492Z,0.50
2023-04-02T15:27:48.457Z,0.50
2023-04-02T15:30:22.959Z,0.87
2023-04-02T15:32:49.520Z,0.60
2023-04-02T15:35:21.779Z,0.60
2023-04-02T15:38:21.509Z,0.73
2023-04-02T15:41:23.410Z,0.50
2023-04-02T15:44:10.876Z,0.50
2023-04-02T15:46:43.569Z,0.47
2023-04-02T15:49:20.108Z,0.50
2023-04-02T15:52:01.771Z,0.60
2023-04-02T15:54:40.204Z,0.50
2023-04-02T15:57:24.216Z,0.57
2023-04-02T16:00:30.334Z,0.40
2023-04-02T16:03:26.486Z,0.80
2023-04-02T16:06:17.106Z,0.90
2023-04-02T16:09:09.860Z,0.90
2023-04-02T16:11:36.607Z,0.60
2023-04-02T16:14:21.057Z,0.60
2023-04-02T16:16:50.281Z,0.70
2023-04-02T16:19:25.628Z,0.90
2023-04-02T16:22:11.192Z,0.47
2023-04-02T16:24:37.574Z,0.43
2023-04-02T16:27:22.048Z,0.50
2023-04-02T16:30:00.899Z,0.70
2023-04-02T16:32:56.233Z,0.50
2023-04-02T16:38:15.217Z,0.50
2023-04-02T16:41:07.935Z,0.50
2023-04-02T16:44:20.124Z,0.50
2023-04-02T16:47:14.595Z,0.53
2023-04-02T16:49:55.355Z,1.90
2023-04-02T16:52:39.677Z,1.63
2023-04-02T16:55:29.719Z,1.70
2023-04-02T16:58:34.033Z,1.93
2023-04-02T17:01:21.513Z,1.60
2023-04-02T17:04:08.862Z,0.90
2023-04-02T17:06:53.869Z,0.70
2023-04-02T17:09:32.644Z,0.63
2023-04-02T17:12:26.345Z,1.10
2023-04-02T17:15:01.023Z,0.60
2023-04-02T17:17:27.652Z,0.60
2023-04-02T17:19:58.473Z,0.67
2023-04-02T17:22:24.910Z,0.80
2023-04-02T17:25:00.181Z,0.80
2023-04-02T17:27:35.454Z,0.77
2023-04-02T17:30:17.797Z,0.80
2023-04-02T17:32:44.361Z,0.80
2023-04-02T17:35:16.973Z,0.70
2023-04-02T17:37:50.288Z,0.60
2023-04-02T17:40:42.689Z,2.33
2023-04-02T17:43:31.080Z,0.80
2023-04-02T17:46:11.154Z,1.00
2023-04-02T17:48:44.597Z,0.90
2023-04-02T17:51:19.972Z,0.97
2023-04-02T17:53:52.273Z,0.83
2023-04-02T17:56:27.192Z,0.77
2023-04-02T17:58:59.659Z,0.77
2023-04-02T18:02:07.011Z,0.90
2023-04-02T18:05:00.489Z,0.70
2023-04-02T18:07:42.657Z,2.10
2023-04-02T18:10:34.589Z,2.57
2023-04-02T18:13:23.993Z,2.70
2023-04-02T18:16:16.719Z,0.90
2023-04-02T18:18:56.158Z,6.13
2023-04-02T18:21:28.578Z,1.20
2023-04-02T18:24:24.187Z,0.90
2023-04-02T18:27:12.264Z,0.70
2023-04-02T18:29:47.720Z,0.60
2023-04-02T18:32:41.959Z,1.10
2023-04-02T18:35:25.441Z,1.80
2023-04-02T18:38:13.250Z,0.80
2023-04-02T18:41:20.150Z,0.80
2023-04-02T18:44:22.180Z,0.90
2023-04-02T18:47:14.135Z,1.20
2023-04-02T18:49:47.188Z,0.80
2023-04-02T18:52:15.571Z,0.67
2023-04-02T18:54:49.239Z,0.70
2023-04-02T18:57:39.380Z,0.80
2023-04-02T19:00:16.652Z,1.57
2023-04-02T19:02:49.124Z,0.73
2023-04-02T19:05:24.847Z,0.87
2023-04-02T19:07:59.076Z,0.80
2023-04-02T19:10:34.052Z,0.87
2023-04-02T19:13:00.804Z,1.10
2023-04-02T19:15:40.476Z,1.23
2023-04-02T19:18:31.610Z,0.93
2023-04-02T19:21:11.790Z,1.20
2023-04-02T19:24:18.705Z,1.73
2023-04-02T19:26:52.044Z,1.10
2023-04-02T19:30:03.294Z,1.30
2023-04-02T19:32:40.931Z,0.87
2023-04-02T19:35:22.793Z,1.00
2023-04-02T19:37:51.968Z,1.40
2023-04-02T19:40:31.690Z,0.87
2023-04-02T19:42:58.438Z,1.00
2023-04-02T19:45:31.472Z,1.20
2023-04-02T19:48:00.605Z,0.90
2023-04-02T19:50:27.036Z,0.83
2023-04-02T19:52:53.430Z,1.47
2023-04-02T19:55:19.850Z,1.20
2023-04-02T19:57:46.239Z,1.30
2023-04-02T20:00:14.760Z,1.17
2023-04-02T20:02:41.190Z,1.00
2023-04-02T20:05:08.379Z,0.77
2023-04-02T20:07:34.747Z,0.80
2023-04-02T20:10:01.313Z,0.90
2023-04-02T20:12:27.645Z,0.90
2023-04-02T20:14:53.984Z,1.30
2023-04-02T20:17:20.556Z,1.30
2023-04-02T20:19:46.894Z,1.60
2023-04-02T20:22:13.332Z,1.30
2023-04-02T20:24:40.913Z,1.70
2023-04-02T20:27:07.251Z,1.10
2023-04-02T20:29:33.618Z,0.90
2023-04-02T20:31:59.935Z,0.80
2023-04-02T20:34:26.404Z,7.50
2023-04-02T20:36:53.543Z,5.10
2023-04-02T20:39:21.345Z,1.70
2023-04-02T20:41:47.959Z,1.30
2023-04-02T20:44:14.606Z,0.80
2023-04-02T20:46:41.487Z,0.90
2023-04-02T20:49:07.982Z,1.10
2023-04-02T20:51:34.410Z,0.83
2023-04-02T20:54:00.798Z,1.00
2023-04-02T20:56:27.777Z,1.10
2023-04-02T20:58:54.144Z,0.97
2023-04-02T21:01:26.059Z,1.10
2023-04-02T21:04:03.671Z,1.00
2023-04-02T21:06:33.523Z,1.00
2023-04-02T21:09:02.294Z,0.70
2023-04-02T21:11:28.725Z,1.10
2023-04-02T21:13:55.176Z,0.90
2023-04-02T21:16:24.976Z,1.23
2023-04-02T21:18:52.929Z,0.70
2023-04-02T21:21:20.848Z,1.10
2023-04-02T21:23:47.616Z,1.90
2023-04-02T21:26:17.922Z,1.20
2023-04-02T21:28:45.537Z,6.93
2023-04-02T21:31:17.998Z,3.63
2023-04-02T21:33:46.886Z,2.53
2023-04-02T21:36:16.919Z,3.33
2023-04-02T21:38:48.514Z,4.23
2023-04-02T21:41:17.787Z,1.50
2023-04-02T21:43:46.010Z,1.70
2023-04-02T21:46:12.503Z,0.90
2023-04-02T21:48:40.478Z,0.87
2023-04-02T21:51:15.968Z,1.10
2023-04-02T21:53:43.099Z,1.10
2023-04-02T21:56:13.514Z,1.23
2023-04-02T21:58:40.496Z,1.10
2023-04-02T22:01:09.094Z,1.30
2023-04-02T22:03:40.619Z,1.57
2023-04-02T22:06:13.970Z,1.50
2023-04-02T22:08:41.845Z,1.43
2023-04-02T22:11:11.752Z,1.50
2023-04-02T22:13:40.120Z,1.47
2023-04-02T22:16:10.359Z,1.60
2023-04-02T22:18:38.094Z,1.47
2023-04-02T22:21:05.657Z,1.87
2023-04-02T22:23:32.434Z,2.00
2023-04-02T22:26:00.282Z,1.90
2023-04-02T22:28:27.737Z,2.50
2023-04-02T22:30:55.670Z,2.40
2023-04-02T22:33:22.495Z,2.40
2023-04-02T22:35:51.742Z,2.70
2023-04-02T22:38:19.179Z,2.47
2023-04-02T22:40:45.816Z,2.50
2023-04-02T22:43:12.347Z,3.40
2023-04-02T22:45:38.664Z,2.83
2023-04-02T22:48:05.289Z,3.43
2023-04-02T22:50:31.841Z,3.10
2023-04-02T22:52:58.233Z,3.20
2023-04-02T22:55:24.610Z,3.47
2023-04-02T22:57:50.965Z,4.23
2023-04-02T23:00:18.180Z,4.23
2023-04-02T23:02:44.636Z,3.40
2023-04-02T23:05:11.200Z,3.67
2023-04-02T23:07:38.255Z,4.50
2023-04-02T23:10:05.894Z,4.43
2023-04-02T23:12:32.358Z,4.53
2023-04-02T23:14:59.260Z,4.40
2023-04-02T23:17:25.800Z,4.43
2023-04-02T23:19:52.170Z,4.50
2023-04-02T23:22:18.527Z,5.30
2023-04-02T23:24:44.861Z,4.90
2023-04-02T23:27:11.188Z,5.93
2023-04-02T23:29:37.507Z,5.17
2023-04-02T23:32:04.000Z,4.90
2023-04-02T23:34:30.497Z,6.07
2023-04-02T23:36:56.833Z,6.77
2023-04-02T23:39:23.172Z,6.47
2023-04-02T23:41:49.532Z,5.77
2023-04-02T23:44:15.921Z,5.80
2023-04-02T23:46:42.329Z,5.83
2023-04-02T23:49:11.202Z,6.53
2023-04-02T23:51:37.536Z,5.70
2023-04-02T23:54:03.991Z,6.20
2023-04-02T23:56:30.453Z,5.90
2023-04-02T23:58:56.943Z,6.13
